Time;durP1;ratioP1;P1;durP2;ratioP2;P2;SDS_P1;SDS_P2;PMS_P1;PMS_P2;Temp;Humidity;BMP_temperature;BMP_pressure;BME280_temperature;BME280_humidity;BME280_pressure;Samples;Min_cycle;Max_cycle;Signal;HPM_P1;HPM_P2
2023/02/27 00:00:32;;;;;;;1.67;0.67;;;2.80;99.90;;;;;;5056547;28;20033;-70
2023/02/27 00:02:58;;;;;;;2.73;0.53;;;2.80;99.90;;;;;;5053275;28;20039;-70
2023/02/27 00:05:24;;;;;;;4.60;0.77;;;2.80;99.90;;;;;;5049814;28;20034;-70
2023/02/27 00:07:50;;;;;;;4.80;0.93;;;2.80;99.90;;;;;;5048457;28;20425;-70
2023/02/27 00:10:16;;;;;;;5.43;1.33;;;2.80;99.90;;;;;;5055376;28;20044;-64
2023/02/27 00:12:43;;;;;;;5.97;0.68;;;2.60;99.90;;;;;;5058051;28;20029;-69
2023/02/27 00:15:12;;;;;;;4.05;0.70;;;2.60;99.90;;;;;;5057456;28;20079;-70
2023/02/27 00:17:38;;;;;;;1.17;0.73;;;2.50;99.90;;;;;;5039771;28;20416;-70
2023/02/27 00:20:12;;;;;;;2.47;0.53;;;2.50;99.90;;;;;;5040075;28;20065;-70
2023/02/27 00:22:39;;;;;;;1.15;0.63;;;2.40;99.90;;;;;;5042017;28;20040;-70
2023/02/27 00:25:06;;;;;;;2.00;0.85;;;2.40;99.90;;;;;;5057008;28;20108;-70
2023/02/27 00:27:32;;;;;;;2.75;0.63;;;2.30;99.90;;;;;;5056426;28;20044;-64
2023/02/27 00:29:58;;;;;;;0.80;0.50;;;2.30;99.90;;;;;;5040990;28;20037;-70
2023/02/27 00:32:24;;;;;;;8.55;0.85;;;2.30;99.90;;;;;;5056635;28;20320;-70
2023/02/27 00:34:50;;;;;;;7.53;0.67;;;2.20;99.90;;;;;;5039039;28;20039;-70
2023/02/27 00:37:16;;;;;;;5.83;0.90;;;2.20;99.90;;;;;;5056462;28;20009;-70
2023/02/27 00:39:42;;;;;;;3.10;0.87;;;2.10;99.90;;;;;;5054123;28;20115;-70
2023/02/27 00:42:08;;;;;;;6.72;1.08;;;2.10;99.90;;;;;;5055404;28;20056;-70
2023/02/27 00:44:33;;;;;;;8.87;1.13;;;2.10;99.90;;;;;;5055003;28;20059;-70
2023/02/27 00:46:59;;;;;;;2.70;0.83;;;2.00;99.90;;;;;;5039955;28;20386;-70
2023/02/27 00:49:25;;;;;;;5.20;1.53;;;2.00;99.90;;;;;;5043272;28;20029;-70
2023/02/27 00:51:51;;;;;;;3.23;0.70;;;1.90;99.90;;;;;;5054992;28;20032;-70
2023/02/27 00:54:17;;;;;;;1.77;1.00;;;1.90;99.90;;;;;;5057187;28;20447;-70
2023/02/27 00:56:42;;;;;;;3.20;0.43;;;1.90;99.90;;;;;;5056840;28;20029;-70
2023/02/27 00:59:08;;;;;;;0.53;0.43;;;1.90;99.90;;;;;;5057197;28;20403;-70
2023/02/27 01:01:34;;;;;;;4.53;0.60;;;1.80;99.90;;;;;;5057188;28;20033;-70
2023/02/27 01:04:00;;;;;;;11.50;1.27;;;1.80;99.90;;;;;;5053578;28;20029;-70
2023/02/27 01:06:26;;;;;;;2.00;0.70;;;1.80;99.90;;;;;;5060104;28;20033;-64
2023/02/27 01:08:52;;;;;;;2.60;1.13;;;1.80;99.90;;;;;;5055657;28;20339;-70
2023/02/27 01:11:18;;;;;;;6.17;0.77;;;1.90;99.90;;;;;;5057241;28;20454;-70
2023/02/27 01:13:45;;;;;;;6.53;0.80;;;1.80;99.90;;;;;;5056555;28;20029;-70
2023/02/27 01:16:11;;;;;;;5.30;1.08;;;1.80;99.90;;;;;;5036612;28;20100;-70
2023/02/27 01:18:37;;;;;;;2.83;0.95;;;1.80;99.90;;;;;;5057286;28;20444;-70
2023/02/27 01:21:03;;;;;;;2.80;0.90;;;1.80;99.90;;;;;;5058163;28;20025;-70
2023/02/27 01:23:29;;;;;;;2.00;0.60;;;1.70;99.90;;;;;;5044234;28;20041;-70
2023/02/27 01:25:55;;;;;;;1.83;0.50;;;1.80;99.90;;;;;;5056296;28;21478;-64
2023/02/27 01:28:20;;;;;;;4.20;0.73;;;1.70;99.90;;;;;;5059124;28;20485;-70
2023/02/27 01:30:46;;;;;;;5.93;1.37;;;1.70;99.90;;;;;;5055718;28;20021;-70
2023/02/27 01:33:12;;;;;;;2.93;0.80;;;1.80;99.90;;;;;;5053796;28;20434;-70
2023/02/27 01:35:38;;;;;;;7.30;1.10;;;1.80;99.90;;;;;;5052419;28;20025;-69
2023/02/27 01:38:03;;;;;;;1.50;0.57;;;1.80;99.90;;;;;;5052613;28;20021;-70
2023/02/27 01:40:33;;;;;;;6.73;0.70;;;1.80;99.90;;;;;;5055168;28;20051;-70
2023/02/27 01:42:59;;;;;;;5.13;1.23;;;1.80;99.90;;;;;;5055741;28;20040;-69
2023/02/27 01:45:27;;;;;;;2.47;0.93;;;1.80;99.90;;;;;;5062419;28;20032;-70
2023/02/27 01:48:05;;;;;;;4.18;0.60;;;1.80;99.90;;;;;;5051223;28;20035;-69
2023/02/27 01:50:32;;;;;;;2.33;0.70;;;1.70;99.90;;;;;;5056097;28;20024;-69
2023/02/27 01:53:00;;;;;;;6.07;1.17;;;1.70;99.90;;;;;;5057655;28;20024;-70
2023/02/27 01:55:28;;;;;;;2.17;0.90;;;1.70;99.90;;;;;;5057126;28;20024;-70
2023/02/27 01:57:54;;;;;;;6.22;1.02;;;1.60;99.90;;;;;;5062317;28;20025;-69
2023/02/27 02:00:21;;;;;;;3.13;0.85;;;1.50;99.90;;;;;;5058813;28;20029;-69
2023/02/27 02:02:58;;;;;;;5.93;1.35;;;1.40;99.90;;;;;;5037543;28;20419;-69
2023/02/27 02:05:24;;;;;;;3.45;0.88;;;1.40;99.90;;;;;;5051098;28;20032;-69
2023/02/27 02:07:51;;;;;;;7.15;0.90;;;1.30;99.90;;;;;;5056896;28;20036;-70
2023/02/27 02:10:18;;;;;;;1.42;0.50;;;1.30;99.90;;;;;;5043591;28;20033;-69
2023/02/27 02:12:45;;;;;;;8.93;0.82;;;1.30;99.90;;;;;;5050103;28;20072;-70
2023/02/27 02:15:11;;;;;;;1.38;0.90;;;1.20;99.90;;;;;;5050899;28;20036;-70
2023/02/27 02:18:15;;;;;;;4.27;0.73;;;1.20;99.90;;;;;;5058751;28;20028;-69
2023/02/27 02:21:05;;;;;;;1.55;0.88;;;1.10;99.90;;;;;;5054224;28;20033;-69
2023/02/27 02:23:55;;;;;;;1.65;0.68;;;1.00;99.90;;;;;;5028430;28;20021;-69
2023/02/27 02:26:46;;;;;;;2.75;0.63;;;0.90;99.90;;;;;;5042711;28;20025;-70
2023/02/27 02:29:41;;;;;;;1.38;0.60;;;0.90;99.90;;;;;;5032009;28;20045;-69
2023/02/27 02:32:25;;;;;;;2.42;0.63;;;0.80;99.90;;;;;;5050588;28;20028;-69
2023/02/27 02:34:50;;;;;;;1.25;0.88;;;0.80;99.90;;;;;;5046266;28;20097;-70
2023/02/27 02:37:41;;;;;;;2.10;0.63;;;0.70;99.90;;;;;;5043885;28;20428;-69
2023/02/27 02:40:32;;;;;;;2.45;0.60;;;0.70;99.90;;;;;;5052508;28;20096;-70
2023/02/27 02:43:23;;;;;;;2.17;0.80;;;0.50;99.90;;;;;;5049041;28;20036;-70
2023/02/27 02:45:54;;;;;;;2.60;0.77;;;0.50;99.90;;;;;;5045734;28;20048;-63
2023/02/27 02:48:28;;;;;;;0.90;0.73;;;0.40;99.90;;;;;;5050813;28;20024;-69
2023/02/27 02:51:55;;;;;;;3.05;0.60;;;0.40;99.90;;;;;;5044620;28;20343;-69
2023/02/27 02:54:49;;;;;;;3.92;0.70;;;0.30;99.90;;;;;;4921002;28;20136;-70
2023/02/27 02:57:36;;;;;;;0.63;0.55;;;0.20;99.90;;;;;;4875601;29;20052;-69
2023/02/27 03:00:16;;;;;;;1.90;0.50;;;0.10;99.90;;;;;;4870651;29;20417;-64
2023/02/27 03:02:53;;;;;;;3.63;1.00;;;0.00;99.90;;;;;;4872744;29;20048;-69
2023/02/27 03:05:31;;;;;;;3.80;1.02;;;-0.10;99.90;;;;;;4862422;29;20118;-70
2023/02/27 03:08:01;;;;;;;5.32;0.70;;;-0.10;99.90;;;;;;4873960;29;20446;-63
2023/02/27 03:10:43;;;;;;;1.33;0.80;;;-0.10;99.90;;;;;;4872519;29;20079;-69
2023/02/27 03:13:22;;;;;;;1.42;0.85;;;-0.10;99.90;;;;;;4876815;29;20033;-70
2023/02/27 03:15:57;;;;;;;5.20;0.68;;;-0.10;99.90;;;;;;4879003;29;20096;-64
2023/02/27 03:18:29;;;;;;;10.23;0.82;;;-0.10;99.90;;;;;;4874952;29;20116;-70
2023/02/27 03:21:00;;;;;;;5.07;0.90;;;0.00;99.90;;;;;;4878689;29;20048;-63
2023/02/27 03:23:34;;;;;;;0.88;0.60;;;-0.10;99.90;;;;;;4895430;29;20033;-69
2023/02/27 03:26:02;;;;;;;4.88;0.88;;;-0.10;99.90;;;;;;4878289;29;20112;-69
2023/02/27 03:28:31;;;;;;;1.33;0.55;;;-0.50;99.90;;;;;;4933356;28;20142;-69
2023/02/27 03:31:26;;;;;;;5.32;1.08;;;-0.70;99.90;;;;;;4935542;29;20087;-69
2023/02/27 03:33:58;;;;;;;0.73;0.50;;;-0.70;99.90;;;;;;4978848;28;20116;-69
2023/02/27 03:36:49;;;;;;;2.53;0.93;;;-0.80;99.90;;;;;;5056491;28;20028;-63
2023/02/27 03:40:05;;;;;;;4.25;0.88;;;-0.80;99.90;;;;;;5053140;28;20115;-70
2023/02/27 03:42:48;;;;;;;1.88;0.65;;;-0.90;99.90;;;;;;4974218;28;20063;-69
2023/02/27 03:45:38;;;;;;;6.35;0.95;;;-0.90;99.90;;;;;;4976131;28;20121;-70
2023/02/27 03:48:05;;;;;;;4.13;0.85;;;-0.90;99.90;;;;;;4972797;28;20133;-63
2023/02/27 03:50:32;;;;;;;5.78;0.77;;;-1.00;99.90;;;;;;4973986;28;20110;-63
2023/02/27 03:52:58;;;;;;;2.00;1.08;;;-1.00;99.90;;;;;;4974767;28;20026;-69
2023/02/27 03:55:35;;;;;;;5.13;1.00;;;-1.10;99.90;;;;;;4977774;28;20368;-69
2023/02/27 03:58:01;;;;;;;1.13;0.60;;;-1.10;99.90;;;;;;4972719;28;20039;-69
2023/02/27 04:00:28;;;;;;;5.27;0.83;;;-1.10;99.90;;;;;;4966826;28;20031;-63
2023/02/27 04:02:56;;;;;;;1.13;0.52;;;-1.20;99.90;;;;;;4975148;28;20396;-63
2023/02/27 04:05:22;;;;;;;1.35;0.77;;;-1.30;99.90;;;;;;4975060;28;21248;-69
2023/02/27 04:08:07;;;;;;;0.95;0.70;;;-1.30;99.90;;;;;;4976733;28;20042;-63
2023/02/27 04:10:50;;;;;;;0.70;0.50;;;-1.30;99.90;;;;;;4966317;28;20113;-69
2023/02/27 04:13:42;;;;;;;3.45;0.60;;;-1.30;99.90;;;;;;4987461;28;20019;-69
2023/02/27 04:16:14;;;;;;;4.65;1.00;;;-1.30;99.90;;;;;;5015846;28;20033;-70
2023/02/27 04:18:43;;;;;;;2.97;0.80;;;-1.30;99.90;;;;;;5059512;28;20025;-70
2023/02/27 04:21:14;;;;;;;2.33;0.88;;;-1.30;99.90;;;;;;5059910;28;20025;-69
2023/02/27 04:24:06;;;;;;;8.32;0.82;;;-1.20;99.90;;;;;;5060104;28;20353;-69
2023/02/27 04:26:43;;;;;;;1.38;0.80;;;-1.10;99.90;;;;;;5042357;28;20047;-69
2023/02/27 04:29:17;;;;;;;5.07;1.15;;;-1.10;99.90;;;;;;5060210;28;20052;-69
2023/02/27 04:31:58;;;;;;;1.08;0.50;;;-1.00;99.90;;;;;;5061537;28;20086;-69
2023/02/27 04:34:44;;;;;;;3.72;1.77;;;-1.00;99.90;;;;;;5053390;28;20078;-69
2023/02/27 04:37:21;;;;;;;4.60;0.98;;;-1.00;99.90;;;;;;5058036;28;20037;-69
2023/02/27 04:39:59;;;;;;;4.03;0.70;;;-1.10;99.90;;;;;;5059166;28;20044;-69
2023/02/27 04:42:30;;;;;;;3.55;0.75;;;-1.00;99.90;;;;;;5059415;28;20029;-69
2023/02/27 04:45:00;;;;;;;1.67;0.82;;;-1.00;99.90;;;;;;5060747;28;20025;-69
2023/02/27 04:47:30;;;;;;;6.80;1.50;;;-0.90;99.90;;;;;;5059361;28;20032;-69
2023/02/27 04:50:06;;;;;;;2.83;0.80;;;-0.90;99.90;;;;;;5059705;28;20029;-69
2023/02/27 04:52:43;;;;;;;2.75;0.80;;;-1.00;99.90;;;;;;5037097;28;20319;-69
2023/02/27 04:55:38;;;;;;;1.02;0.47;;;-1.00;99.90;;;;;;5053223;28;20048;-69
2023/02/27 04:58:16;;;;;;;1.58;0.75;;;-1.10;99.90;;;;;;5047911;28;20032;-69
2023/02/27 05:00:46;;;;;;;0.68;0.52;;;-1.20;99.90;;;;;;5054096;28;20029;-69
2023/02/27 05:03:27;;;;;;;2.35;0.70;;;-1.10;99.90;;;;;;5054900;28;20057;-69
2023/02/27 05:05:58;;;;;;;2.38;0.88;;;-1.00;99.90;;;;;;5062413;28;20029;-63
2023/02/27 05:08:27;;;;;;;10.05;1.35;;;-0.80;99.90;;;;;;5059693;28;20049;-63
2023/02/27 05:11:08;;;;;;;1.52;0.52;;;-0.90;99.90;;;;;;5039494;28;20389;-69
2023/02/27 05:13:57;;;;;;;4.78;1.25;;;-1.00;99.90;;;;;;5047790;28;20024;-63
2023/02/27 05:16:46;;;;;;;2.88;0.80;;;-1.10;99.90;;;;;;5060400;28;20025;-63
2023/02/27 05:19:12;;;;;;;2.47;1.23;;;-1.20;99.90;;;;;;5052185;28;20115;-69
2023/02/27 05:21:41;;;;;;;8.32;0.93;;;-1.20;99.90;;;;;;5052144;28;20335;-63
2023/02/27 05:24:34;;;;;;;3.15;0.60;;;-1.20;99.90;;;;;;5060529;28;20040;-69
2023/02/27 05:27:28;;;;;;;1.80;1.00;;;-1.20;99.90;;;;;;5055694;28;20064;-69
2023/02/27 05:30:16;;;;;;;12.82;1.67;;;-1.20;99.90;;;;;;5056150;28;20044;-63
2023/02/27 05:32:56;;;;;;;8.27;1.63;;;-1.10;99.90;;;;;;5060751;28;20107;-69
2023/02/27 05:35:43;;;;;;;1.23;0.63;;;-1.00;99.90;;;;;;5057698;28;20117;-63
2023/02/27 05:38:20;;;;;;;4.93;1.15;;;-1.20;99.90;;;;;;5044981;28;20036;-63
2023/02/27 05:40:51;;;;;;;2.58;0.77;;;-1.30;99.90;;;;;;5057904;28;20037;-69
2023/02/27 05:43:33;;;;;;;5.60;0.82;;;-1.40;99.90;;;;;;5050553;28;20093;-69
2023/02/27 05:46:06;;;;;;;1.42;0.85;;;-1.50;99.90;;;;;;5056177;28;20114;-63
2023/02/27 05:48:37;;;;;;;4.72;0.75;;;-1.40;99.90;;;;;;5064653;28;20032;-63
2023/02/27 05:51:06;;;;;;;1.05;0.75;;;-1.30;99.90;;;;;;5055094;28;20033;-63
2023/02/27 05:53:39;;;;;;;0.85;0.82;;;-1.30;99.90;;;;;;5064556;28;20031;-69
2023/02/27 05:56:06;;;;;;;2.08;1.02;;;-1.30;99.90;;;;;;5053341;28;20033;-67
2023/02/27 05:58:44;;;;;;;1.95;0.63;;;-1.20;99.90;;;;;;5054558;28;20024;-63
2023/02/27 06:01:11;;;;;;;3.17;1.05;;;-1.20;99.90;;;;;;5060291;28;20431;-64
2023/02/27 06:03:39;;;;;;;4.25;1.00;;;-1.20;99.90;;;;;;5047038;28;20021;-63
2023/02/27 06:06:08;;;;;;;4.13;1.20;;;-1.20;99.90;;;;;;5046637;28;20072;-70
2023/02/27 06:08:34;;;;;;;3.17;0.65;;;-1.20;99.90;;;;;;5045526;28;20025;-63
2023/02/27 06:10:59;;;;;;;5.07;0.85;;;-1.20;99.90;;;;;;5043428;28;20052;-63
2023/02/27 06:13:25;;;;;;;3.80;0.70;;;-1.10;99.90;;;;;;5038050;28;20037;-69
2023/02/27 06:15:51;;;;;;;1.73;0.80;;;-1.00;99.90;;;;;;5050902;28;20157;-63
2023/02/27 06:18:17;;;;;;;5.47;1.02;;;-0.90;99.90;;;;;;5044962;28;20047;-69
2023/02/27 06:20:44;;;;;;;4.50;1.08;;;-0.80;99.90;;;;;;5040951;28;20036;-63
2023/02/27 06:23:11;;;;;;;3.60;1.02;;;-0.70;99.90;;;;;;5054173;28;20057;-69
2023/02/27 06:25:37;;;;;;;2.83;1.48;;;-0.70;99.90;;;;;;5047194;28;20047;-69
2023/02/27 06:28:04;;;;;;;3.35;0.98;;;-0.70;99.90;;;;;;5048333;28;20160;-69
2023/02/27 06:30:30;;;;;;;2.92;0.80;;;-0.70;99.90;;;;;;5049011;28;20047;-69
2023/02/27 06:32:56;;;;;;;2.67;1.00;;;-0.60;99.90;;;;;;5049739;28;20033;-63
2023/02/27 06:35:22;;;;;;;1.93;0.80;;;-0.60;99.90;;;;;;5048920;28;20117;-63
2023/02/27 06:37:47;;;;;;;1.83;1.13;;;-0.50;99.90;;;;;;5045411;28;20037;-69
2023/02/27 06:40:13;;;;;;;6.40;0.93;;;-0.50;99.90;;;;;;5048317;28;20029;-63
2023/02/27 06:42:43;;;;;;;3.87;0.67;;;-0.30;99.90;;;;;;5049305;28;20068;-70
2023/02/27 06:45:12;;;;;;;7.05;1.38;;;0.00;99.90;;;;;;5027299;28;20124;-69
2023/02/27 06:47:39;;;;;;;6.20;1.23;;;0.20;99.90;;;;;;5027742;28;20062;-69
2023/02/27 06:50:05;;;;;;;3.15;1.13;;;0.10;99.90;;;;;;5042422;28;20044;-69
2023/02/27 06:52:31;;;;;;;3.85;0.93;;;0.00;99.90;;;;;;5033961;28;20064;-63
2023/02/27 06:54:57;;;;;;;3.55;0.65;;;0.00;99.90;;;;;;5044047;28;20090;-63
2023/02/27 06:57:23;;;;;;;8.17;1.03;;;0.00;99.90;;;;;;5054636;28;20394;-70
2023/02/27 06:59:48;;;;;;;2.10;0.80;;;0.00;99.90;;;;;;5048681;28;20064;-70
2023/02/27 07:02:15;;;;;;;16.53;1.57;;;0.10;99.90;;;;;;5048668;28;20380;-70
2023/02/27 07:04:41;;;;;;;1.30;0.98;;;0.30;99.90;;;;;;5047686;28;20075;-69
2023/02/27 07:07:08;;;;;;;10.55;1.15;;;0.30;99.90;;;;;;5051625;28;20040;-70
2023/02/27 07:09:35;;;;;;;3.22;1.33;;;0.40;99.90;;;;;;5049530;28;20049;-69
2023/02/27 07:12:00;;;;;;;;;;;0.60;99.90;;;;;;5052587;28;20403;-69
2023/02/27 07:14:26;;;;;;;11.25;1.40;;;0.90;99.90;;;;;;5032999;28;19955;-70
2023/02/27 07:16:55;;;;;;;2.10;1.13;;;1.10;99.90;;;;;;5054092;28;20029;-64
2023/02/27 07:19:22;;;;;;;1.23;0.93;;;1.40;99.90;;;;;;5058516;28;20100;-64
2023/02/27 07:21:47;;;;;;;2.10;0.90;;;1.40;99.90;;;;;;5042487;28;20029;-63
2023/02/27 07:24:13;;;;;;;1.97;0.80;;;1.50;99.90;;;;;;5042267;28;20029;-69
2023/02/27 07:26:39;;;;;;;4.40;0.80;;;1.60;99.90;;;;;;5051882;28;20428;-70
2023/02/27 07:29:05;;;;;;;1.40;1.07;;;1.90;99.90;;;;;;5033764;28;20055;-69
2023/02/27 07:31:32;;;;;;;6.00;0.80;;;2.30;99.90;;;;;;5052999;28;20021;-69
2023/02/27 07:33:57;;;;;;;6.05;0.77;;;3.20;99.90;;;;;;5046289;28;20052;-63
2023/02/27 07:36:23;;;;;;;8.50;1.17;;;4.40;99.90;;;;;;5045407;28;20025;-70
2023/02/27 07:38:49;;;;;;;1.97;1.23;;;5.70;99.90;;;;;;5051872;28;20041;-68
2023/02/27 07:41:15;;;;;;;1.43;0.60;;;6.80;99.90;;;;;;5047764;28;20133;-69
2023/02/27 07:43:42;;;;;;;4.45;1.33;;;7.80;99.90;;;;;;5051043;28;20050;-64
2023/02/27 07:46:07;;;;;;;6.00;0.60;;;8.70;99.90;;;;;;5052307;28;20051;-69
2023/02/27 07:48:33;;;;;;;2.47;0.70;;;9.20;99.90;;;;;;5054337;28;20437;-63
2023/02/27 07:50:59;;;;;;;2.80;1.30;;;9.10;99.90;;;;;;5048664;28;20029;-69
2023/02/27 07:53:25;;;;;;;9.03;1.07;;;9.00;99.90;;;;;;5051927;28;20311;-63
2023/02/27 07:55:51;;;;;;;5.93;0.85;;;8.70;99.90;;;;;;5050828;28;20281;-64
2023/02/27 07:58:17;;;;;;;4.30;0.70;;;8.50;99.90;;;;;;5053254;28;20056;-63
2023/02/27 08:00:43;;;;;;;3.03;1.23;;;8.50;99.90;;;;;;5052658;28;20037;-69
2023/02/27 08:03:09;;;;;;;6.33;1.27;;;8.80;99.90;;;;;;5049587;28;20021;-69
2023/02/27 08:05:35;;;;;;;4.35;0.90;;;9.10;99.90;;;;;;5049180;28;20025;-63
2023/02/27 08:08:01;;;;;;;3.13;0.83;;;9.50;99.90;;;;;;5053582;28;20438;-63
2023/02/27 08:10:27;;;;;;;1.63;0.80;;;9.50;99.90;;;;;;5051256;28;20032;-69
2023/02/27 08:12:52;;;;;;;1.83;0.93;;;9.30;99.90;;;;;;5052083;28;20024;-63
2023/02/27 08:15:18;;;;;;;5.65;0.93;;;9.00;99.90;;;;;;5049278;28;20087;-69
2023/02/27 08:17:45;;;;;;;4.67;1.27;;;8.60;99.90;;;;;;5049365;28;20036;-69
2023/02/27 08:20:12;;;;;;;;;;;8.60;99.90;;;;;;5045411;28;20416;-64
2023/02/27 08:22:38;;;;;;;6.50;1.35;;;8.50;99.90;;;;;;5058956;28;19917;-70
2023/02/27 08:25:06;;;;;;;5.55;0.80;;;8.50;99.90;;;;;;5044345;28;20029;-63
2023/02/27 08:27:33;;;;;;;6.32;1.33;;;7.90;99.90;;;;;;5050921;28;20435;-63
2023/02/27 08:29:59;;;;;;;1.10;0.73;;;7.20;99.90;;;;;;5055615;28;20182;-63
2023/02/27 08:32:26;;;;;;;7.97;1.37;;;6.90;99.90;;;;;;5057066;28;20021;-63
2023/02/27 08:34:51;;;;;;;7.82;1.00;;;6.90;99.90;;;;;;5060550;28;20021;-70
2023/02/27 08:37:17;;;;;;;9.00;0.90;;;6.70;99.90;;;;;;5048742;28;20024;-63
2023/02/27 08:39:43;;;;;;;2.07;1.00;;;6.90;99.90;;;;;;5055716;28;20040;-68
2023/02/27 08:42:09;;;;;;;2.23;1.00;;;6.90;99.90;;;;;;5055213;28;20110;-68
2023/02/27 08:44:35;;;;;;;5.73;1.50;;;7.10;99.90;;;;;;5049185;28;20029;-70
2023/02/27 08:47:00;;;;;;;4.60;0.87;;;7.10;99.90;;;;;;5051458;28;20040;-63
2023/02/27 08:49:26;;;;;;;4.33;0.80;;;7.40;99.90;;;;;;5053286;28;20024;-63
2023/02/27 08:51:52;;;;;;;1.27;0.70;;;7.30;99.90;;;;;;5055507;28;20031;-64
2023/02/27 08:54:19;;;;;;;7.03;1.08;;;7.80;99.90;;;;;;5053630;28;20485;-69
2023/02/27 08:56:45;;;;;;;2.63;1.08;;;7.60;99.90;;;;;;5056980;28;20054;-64
2023/02/27 08:59:11;;;;;;;4.55;1.10;;;7.70;99.90;;;;;;5058929;28;20095;-64
2023/02/27 09:01:36;;;;;;;4.73;1.27;;;7.90;99.90;;;;;;5053383;28;20182;-65
2023/02/27 09:04:03;;;;;;;2.07;0.90;;;8.40;99.90;;;;;;5048466;28;20115;-64
2023/02/27 09:06:30;;;;;;;;;;;8.50;99.90;;;;;;5055174;28;20033;-69
2023/02/27 09:08:57;;;;;;;3.92;0.65;;;8.20;99.90;;;;;;5056948;28;20278;-70
2023/02/27 09:11:23;;;;;;;;;;;8.40;99.90;;;;;;5060648;28;20043;-69
2023/02/27 09:13:50;;;;;;;1.92;0.70;;;8.00;99.90;;;;;;5053487;28;20257;-63
2023/02/27 09:16:16;;;;;;;;;;;7.70;99.90;;;;;;5044205;28;20404;-63
2023/02/27 09:18:41;;;;;;;9.50;0.90;;;7.80;99.90;;;;;;5051294;28;20007;-69
2023/02/27 09:21:07;;;;;;;10.02;0.95;;;7.70;99.90;;;;;;5058349;28;20029;-64
2023/02/27 09:23:33;;;;;;;4.33;0.90;;;7.80;99.90;;;;;;5057866;28;20342;-69
2023/02/27 09:25:59;;;;;;;2.40;0.70;;;7.50;99.90;;;;;;5045844;28;20108;-63
2023/02/27 09:28:24;;;;;;;3.03;0.80;;;7.30;99.90;;;;;;5062007;28;20334;-70
2023/02/27 09:30:50;;;;;;;0.60;0.60;;;7.20;99.90;;;;;;5041952;28;20430;-64
2023/02/27 09:33:15;;;;;;;1.83;0.70;;;7.30;99.90;;;;;;5049921;28;20029;-70
2023/02/27 09:35:41;;;;;;;2.15;0.77;;;7.40;99.90;;;;;;5055029;28;20026;-70
2023/02/27 09:38:07;;;;;;;4.63;0.77;;;7.10;99.90;;;;;;5054312;28;20035;-65
2023/02/27 09:40:39;;;;;;;1.17;0.63;;;7.30;99.90;;;;;;5052247;28;20038;-63
2023/02/27 09:43:31;;;;;;;4.18;1.05;;;7.30;99.90;;;;;;5050803;28;20044;-68
2023/02/27 09:45:57;;;;;;;2.47;0.47;;;7.20;99.90;;;;;;5053601;28;20067;-63
2023/02/27 09:48:29;;;;;;;7.38;1.10;;;7.10;99.90;;;;;;5050440;28;20037;-69
2023/02/27 09:50:55;;;;;;;2.17;0.50;;;6.80;99.90;;;;;;5045229;28;20035;-63
2023/02/27 09:53:34;;;;;;;8.98;1.08;;;6.80;99.90;;;;;;5052671;28;20021;-69
2023/02/27 09:56:23;;;;;;;1.98;0.60;;;7.00;99.90;;;;;;5056201;28;20024;-70
2023/02/27 09:59:07;;;;;;;5.00;0.80;;;7.10;99.90;;;;;;5049682;28;20029;-63
2023/02/27 10:01:41;;;;;;;2.72;0.60;;;7.20;99.90;;;;;;5049708;28;20025;-70
2023/02/27 10:04:19;;;;;;;2.08;0.50;;;7.20;99.90;;;;;;5053647;28;20036;-70
2023/02/27 10:06:51;;;;;;;2.53;0.95;;;7.10;99.90;;;;;;5051241;28;20079;-63
2023/02/27 10:10:18;;;;;;;0.20;0.20;;;7.00;99.90;;;;;;5057300;28;20036;-63
2023/02/27 10:13:14;;;;;;;3.22;0.80;;;7.00;99.90;;;;;;4984037;28;20069;-63
2023/02/27 10:15:45;;;;;;;1.80;0.67;;;7.20;99.90;;;;;;4986920;28;20227;-69
2023/02/27 10:18:23;;;;;;;3.38;1.00;;;7.10;99.90;;;;;;4996562;28;20098;-69
2023/02/27 10:21:03;;;;;;;4.35;0.60;;;7.40;99.90;;;;;;4995578;28;20083;-63
2023/02/27 10:23:55;;;;;;;1.27;0.63;;;7.20;99.90;;;;;;4996867;28;20073;-63
2023/02/27 10:26:26;;;;;;;4.05;0.52;;;7.10;99.90;;;;;;4997310;28;20030;-63
2023/02/27 10:28:52;;;;;;;3.78;0.80;;;7.20;99.90;;;;;;4979744;28;20074;-63
2023/02/27 10:31:22;;;;;;;0.57;0.55;;;7.40;99.90;;;;;;5002266;28;20046;-69
2023/02/27 10:33:49;;;;;;;2.08;0.47;;;7.40;99.90;;;;;;4988291;28;20040;-71
2023/02/27 10:36:17;;;;;;;2.33;1.08;;;7.40;99.90;;;;;;4978239;28;20038;-71
2023/02/27 10:38:55;;;;;;;2.25;0.60;;;7.00;99.90;;;;;;4993360;28;20033;-71
2023/02/27 10:41:22;;;;;;;4.60;0.70;;;6.80;99.90;;;;;;4963496;28;20026;-63
2023/02/27 10:43:49;;;;;;;3.10;0.40;;;6.90;99.90;;;;;;5027756;28;20324;-63
2023/02/27 10:46:20;;;;;;;2.00;0.32;;;7.10;99.90;;;;;;5050536;28;20012;-70
2023/02/27 10:48:45;;;;;;;0.95;0.55;;;6.90;99.90;;;;;;5049822;28;20041;-64
2023/02/27 10:51:33;;;;;;;1.00;0.50;;;6.90;99.90;;;;;;5053137;28;20029;-71
2023/02/27 10:54:17;;;;;;;3.72;0.50;;;7.20;99.90;;;;;;5054256;28;20029;-71
2023/02/27 10:56:59;;;;;;;0.40;0.40;;;7.00;99.90;;;;;;5056973;28;20056;-64
2023/02/27 10:59:26;;;;;;;0.82;0.47;;;6.90;99.90;;;;;;5051983;28;20104;-71
2023/02/27 11:01:57;;;;;;;;;;;6.90;99.90;;;;;;5057983;28;20060;-71
2023/02/27 11:04:33;;;;;;;5.57;0.57;;;6.50;99.90;;;;;;5059102;28;19957;-71
2023/02/27 11:07:02;;;;;;;2.30;0.60;;;6.20;99.90;;;;;;5055154;28;20029;-69
2023/02/27 11:09:32;;;;;;;2.25;0.50;;;6.10;99.90;;;;;;5059209;28;20090;-70
2023/02/27 11:12:19;;;;;;;3.83;0.63;;;6.20;99.90;;;;;;5035598;28;20506;-70
2023/02/27 11:14:54;;;;;;;0.90;0.32;;;6.50;99.90;;;;;;5052855;28;20469;-63
2023/02/27 11:17:23;;;;;;;0.73;0.50;;;6.50;99.90;;;;;;5043520;28;20055;-66
2023/02/27 11:19:49;;;;;;;2.33;0.45;;;6.60;99.90;;;;;;5054492;28;20029;-70
2023/02/27 11:22:18;;;;;;;1.60;0.50;;;6.60;99.90;;;;;;5052743;28;20021;-70
2023/02/27 11:24:44;;;;;;;0.20;0.20;;;6.80;99.90;;;;;;5059279;28;20119;-64
2023/02/27 11:27:27;;;;;;;0.23;0.20;;;7.10;99.90;;;;;;5056110;28;20029;-64
2023/02/27 11:30:02;;;;;;;2.42;0.38;;;6.80;99.90;;;;;;5054833;28;20044;-72
2023/02/27 11:32:43;;;;;;;2.75;0.35;;;6.40;99.90;;;;;;5054545;28;20025;-63
2023/02/27 11:35:32;;;;;;;2.22;0.38;;;6.30;99.90;;;;;;5057364;28;20025;-64
2023/02/27 11:38:18;;;;;;;0.50;0.50;;;6.20;99.90;;;;;;5064400;28;20021;-63
2023/02/27 11:41:05;;;;;;;1.13;0.90;;;5.90;99.90;;;;;;5058637;28;20110;-71
2023/02/27 11:43:40;;;;;;;3.85;0.60;;;5.80;99.90;;;;;;5049883;28;20372;-64
2023/02/27 11:46:10;;;;;;;2.55;1.13;;;6.00;99.90;;;;;;5053060;28;20115;-64
2023/02/27 11:48:59;;;;;;;0.20;0.20;;;6.20;99.90;;;;;;5047763;28;20025;-71
2023/02/27 11:51:50;;;;;;;1.38;0.50;;;6.40;99.90;;;;;;5046045;28;20025;-64
2023/02/27 11:54:41;;;;;;;0.93;0.40;;;6.60;99.90;;;;;;5056557;28;20094;-70
2023/02/27 11:57:18;;;;;;;2.58;0.68;;;6.80;99.90;;;;;;5054597;28;20089;-68
2023/02/27 12:00:12;;;;;;;0.47;0.45;;;6.80;99.90;;;;;;5055171;28;20028;-64
2023/02/27 12:02:54;;;;;;;3.00;0.98;;;7.00;99.90;;;;;;5051729;28;20087;-71
2023/02/27 12:05:31;;;;;;;0.93;0.20;;;7.10;99.90;;;;;;5056185;28;20064;-64
2023/02/27 12:08:10;;;;;;;0.35;0.30;;;7.00;99.90;;;;;;5058882;28;20332;-63
2023/02/27 12:10:53;;;;;;;2.42;0.30;;;7.00;99.90;;;;;;5052965;28;20024;-71
2023/02/27 12:13:19;;;;;;;2.85;0.98;;;7.00;99.90;;;;;;5061720;28;20087;-72
2023/02/27 12:16:08;;;;;;;0.60;0.60;;;7.00;99.90;;;;;;5060107;28;20348;-64
2023/02/27 12:18:40;;;;;;;0.63;0.30;;;6.90;99.90;;;;;;5048790;28;20041;-63
2023/02/27 12:21:11;;;;;;;2.03;0.40;;;6.80;99.90;;;;;;5054363;28;20072;-69
2023/02/27 12:24:00;;;;;;;5.45;1.30;;;7.10;99.90;;;;;;5052510;28;20079;-63
2023/02/27 12:26:36;;;;;;;4.78;0.50;;;7.20;99.90;;;;;;5057288;28;20158;-64
2023/02/27 12:29:35;;;;;;;4.65;0.50;;;7.20;99.90;;;;;;5046922;28;20133;-71
2023/02/27 12:32:12;;;;;;;1.33;0.43;;;6.80;99.90;;;;;;5035496;28;20423;-71
2023/02/27 12:34:40;;;;;;;0.35;0.35;;;6.70;99.90;;;;;;5049698;28;20028;-71
2023/02/27 12:37:21;;;;;;;0.80;0.43;;;6.60;99.90;;;;;;5027870;28;20402;-73
2023/02/27 12:39:47;;;;;;;2.05;0.88;;;6.40;99.90;;;;;;5057348;28;20029;-64
2023/02/27 12:42:34;;;;;;;1.73;0.28;;;6.20;99.90;;;;;;5050681;28;20033;-62
2023/02/27 12:45:02;;;;;;;;;;;6.20;99.90;;;;;;5043938;28;20315;-63
2023/02/27 12:48:09;;;;;;;7.22;0.55;;;6.20;99.90;;;;;;5057574;28;20011;-63
2023/02/27 12:50:43;;;;;;;3.65;0.60;;;6.50;99.90;;;;;;5057064;28;20031;-63
2023/02/27 12:53:57;;;;;;;0.52;0.50;;;6.40;99.90;;;;;;5050531;28;20035;-63
2023/02/27 12:56:30;;;;;;;2.70;0.82;;;6.30;99.90;;;;;;5019621;28;20423;-72
2023/02/27 12:59:42;;;;;;;2.70;1.23;;;6.00;99.90;;;;;;5047475;28;20021;-63
2023/02/27 13:02:26;;;;;;;4.35;0.93;;;5.80;99.90;;;;;;5032957;28;20025;-71
2023/02/27 13:05:12;;;;;;;2.38;0.38;;;5.70;99.90;;;;;;5047529;28;20021;-72
2023/02/27 13:07:59;;;;;;;0.50;0.37;;;5.90;99.90;;;;;;5054800;28;20084;-64
2023/02/27 13:10:35;;;;;;;2.17;0.70;;;6.00;99.90;;;;;;5051558;28;20353;-70
2023/02/27 13:13:21;;;;;;;2.22;1.17;;;6.20;99.90;;;;;;5054855;28;20040;-63
2023/02/27 13:16:00;;;;;;;0.20;0.20;;;6.10;99.90;;;;;;5054827;28;20312;-71
2023/02/27 13:18:48;;;;;;;3.20;0.43;;;5.90;99.90;;;;;;5054976;28;20032;-63
2023/02/27 13:21:32;;;;;;;3.92;0.82;;;5.70;99.90;;;;;;5045918;28;20079;-63
2023/02/27 13:24:16;;;;;;;3.58;0.82;;;5.60;99.90;;;;;;5041028;28;20029;-63
2023/02/27 13:26:50;;;;;;;2.50;1.02;;;5.60;99.90;;;;;;5048321;28;20029;-63